Time;durP1;ratioP1;P1;durP2;ratioP2;P2;SDS_P1;SDS_P2;PMS_P1;PMS_P2;Temp;Humidity;BMP_temperature;BMP_pressure;BME280_temperature;BME280_humidity;BME280_pressure;Samples;Min_cycle;Max_cycle;Signal;HPM_P1;HPM_P2
2021/12/10 00:00:04;;;;;;;22.63;10.93;;;;;;;-3.55;100.00;99261.13;5151653;27;20433;-56
2021/12/10 00:02:34;;;;;;;24.67;11.48;;;;;;;-3.48;100.00;99257.34;5151281;27;20097;-58
2021/12/10 00:05:02;;;;;;;22.52;10.50;;;;;;;-3.43;100.00;99262.69;5151940;27;20055;-57
2021/12/10 00:07:29;;;;;;;28.58;11.27;;;;;;;-3.50;100.00;99260.28;5151650;27;20054;-53
2021/12/10 00:09:59;;;;;;;20.85;10.75;;;;;;;-3.49;100.00;99258.44;5151680;27;20162;-58
2021/12/10 00:12:29;;;;;;;30.58;11.93;;;;;;;-3.45;100.00;99262.19;5151287;27;20054;-57
2021/12/10 00:14:56;;;;;;;22.27;10.95;;;;;;;-3.46;100.00;99255.22;5151353;27;20043;-53
2021/12/10 00:17:23;;;;;;;23.45;11.27;;;;;;;-3.46;100.00;99247.19;5151091;27;20111;-56
2021/12/10 00:19:55;;;;;;;25.58;10.90;;;;;;;-3.52;100.00;99254.41;5151259;27;20057;-56
2021/12/10 00:22:38;;;;;;;28.30;10.98;;;;;;;-3.50;100.00;99246.09;5151131;27;20504;-56
2021/12/10 00:25:09;;;;;;;36.55;11.25;;;;;;;-3.50;100.00;99244.22;5150974;27;20047;-57
2021/12/10 00:27:36;;;;;;;26.85;12.38;;;;;;;-3.48;100.00;99239.41;5150917;27;20524;-56
2021/12/10 00:30:08;;;;;;;28.08;12.00;;;;;;;-3.60;100.00;99241.53;5150840;27;20086;-57
2021/12/10 00:32:39;;;;;;;37.65;12.10;;;;;;;-3.51;100.00;99229.22;5150998;27;20043;-56
2021/12/10 00:35:10;;;;;;;24.33;11.23;;;;;;;-3.60;100.00;99212.91;5150870;27;20450;-56
2021/12/10 00:37:36;;;;;;;26.35;11.68;;;;;;;-3.62;100.00;99207.00;5151064;27;20107;-58
2021/12/10 00:40:07;;;;;;;27.30;12.40;;;;;;;-3.61;100.00;99213.94;5151057;27;20133;-57
2021/12/10 00:42:35;;;;;;;29.48;12.02;;;;;;;-3.63;100.00;99204.56;5150929;27;20082;-57
2021/12/10 00:45:04;;;;;;;27.95;11.40;;;;;;;-3.58;100.00;99186.63;5150307;27;20421;-53
2021/12/10 00:47:31;;;;;;;29.88;11.95;;;;;;;-3.60;100.00;99183.41;5150660;27;20050;-57
2021/12/10 00:49:58;;;;;;;37.35;11.48;;;;;;;-3.53;100.00;99196.53;5150860;27;20076;-55
2021/12/10 00:52:25;;;;;;;30.77;10.88;;;;;;;-3.65;100.00;99186.09;5150602;27;20187;-56
2021/12/10 00:54:52;;;;;;;32.55;11.65;;;;;;;-3.58;100.00;99172.41;5150865;27;20054;-57
2021/12/10 00:57:20;;;;;;;25.20;11.48;;;;;;;-3.60;100.00;99161.16;5153076;27;20827;-56
2021/12/10 00:59:49;;;;;;;29.35;10.85;;;;;;;-3.56;100.00;99155.00;5154303;27;20138;-56
2021/12/10 01:02:20;;;;;;;21.95;10.88;;;;;;;-3.62;100.00;99164.13;5153952;27;20493;-54
2021/12/10 01:04:50;;;;;;;26.33;11.38;;;;;;;-3.62;100.00;99152.59;5154298;27;20145;-57
2021/12/10 01:07:21;;;;;;;25.40;11.13;;;;;;;-3.67;100.00;99148.03;5153984;27;20062;-55
2021/12/10 01:09:49;;;;;;;26.23;11.02;;;;;;;-3.51;100.00;99153.38;5154505;27;20484;-56
2021/12/10 01:12:19;;;;;;;27.02;12.45;;;;;;;-3.38;100.00;99147.44;5154017;27;20050;-57
2021/12/10 01:15:01;;;;;;;31.38;11.82;;;;;;;-3.52;100.00;99147.22;5153757;27;20485;-56
2021/12/10 01:26:07;;;;;;;26.52;11.32;;;;;;;-3.49;100.00;99130.59;5153962;27;20181;-54
2021/12/10 01:28:34;;;;;;;21.85;10.80;;;;;;;-3.46;100.00;99138.09;5153659;27;20423;-57
2021/12/10 01:31:01;;;;;;;27.33;12.13;;;;;;;-3.51;100.00;99116.66;5153788;27;20049;-52
2021/12/10 01:33:27;;;;;;;28.20;10.95;;;;;;;-3.49;100.00;99116.41;5153498;27;20047;-54
2021/12/10 01:35:56;;;;;;;36.88;12.43;;;;;;;-3.49;100.00;99103.78;5153692;27;20126;-53
2021/12/10 01:38:24;;;;;;;26.27;11.18;;;;;;;-3.51;100.00;99095.22;5153297;27;20523;-55
2021/12/10 01:40:55;;;;;;;33.13;12.13;;;;;;;-3.51;100.00;99083.69;5153544;27;20536;-54
2021/12/10 01:43:23;;;;;;;24.27;11.20;;;;;;;-3.42;100.00;99098.13;5153503;27;20055;-58
2021/12/10 01:45:53;;;;;;;26.83;11.88;;;;;;;-3.38;100.00;99108.03;5152958;27;20046;-53
2021/12/10 01:48:24;;;;;;;30.80;12.40;;;;;;;-3.39;100.00;99102.97;5153551;27;20572;-57
2021/12/10 01:50:52;;;;;;;31.88;11.95;;;;;;;-3.34;100.00;99093.00;5153105;27;20100;-57
2021/12/10 01:53:23;;;;;;;24.27;10.63;;;;;;;-3.33;100.00;99091.94;5153220;27;20070;-55
2021/12/10 01:55:53;;;;;;;26.15;11.02;;;;;;;-3.41;100.00;99097.84;5153086;27;20134;-55
2021/12/10 01:58:21;;;;;;;28.92;10.70;;;;;;;-3.34;100.00;99086.84;5153318;27;20051;-56
2021/12/10 02:00:52;;;;;;;29.02;11.32;;;;;;;-3.34;100.00;99102.91;5152934;27;20504;-54
2021/12/10 02:03:18;;;;;;;24.23;10.95;;;;;;;-3.38;100.00;99091.94;5152736;27;20077;-57
2021/12/10 02:05:45;;;;;;;32.17;12.15;;;;;;;-3.34;100.00;99084.16;5152926;27;20452;-56
2021/12/10 02:08:11;;;;;;;28.55;10.75;;;;;;;-3.34;100.00;99084.16;5151752;27;20082;-56
2021/12/10 02:10:38;;;;;;;27.35;10.93;;;;;;;-3.26;100.00;99082.78;5152802;27;20078;-57
2021/12/10 02:13:05;;;;;;;29.85;13.25;;;;;;;-3.33;100.00;99081.22;5152801;27;20050;-56
2021/12/10 02:15:31;;;;;;;25.42;11.18;;;;;;;-3.34;100.00;99076.91;5152812;27;20051;-57
2021/12/10 02:18:00;;;;;;;33.45;11.73;;;;;;;-3.33;100.00;99075.84;5153009;27;20050;-54
2021/12/10 02:20:30;;;;;;;28.45;12.40;;;;;;;-3.23;100.00;99071.50;5152694;27;20057;-57
2021/12/10 02:22:57;;;;;;;30.75;10.55;;;;;;;-3.22;100.00;99070.44;5153089;27;20046;-56
2021/12/10 02:25:26;;;;;;;30.63;10.98;;;;;;;-3.32;100.00;99053.31;5153113;27;20047;-55
2021/12/10 02:27:54;;;;;;;28.00;12.07;;;;;;;-3.24;100.00;99051.13;5152407;27;20141;-55
2021/12/10 02:30:23;;;;;;;24.45;11.10;;;;;;;-3.21;100.00;99050.59;5152624;27;20054;-57
2021/12/10 02:32:50;;;;;;;26.40;10.30;;;;;;;-3.17;100.00;99048.94;5152452;27;20569;-57
2021/12/10 02:35:16;;;;;;;28.98;11.43;;;;;;;-3.13;100.00;99042.78;5152639;27;20047;-55
2021/12/10 02:37:44;;;;;;;30.00;11.32;;;;;;;-3.00;100.00;99043.22;5152290;27;20509;-56
2021/12/10 02:40:14;;;;;;;29.02;11.40;;;;;;;-2.96;100.00;99039.72;5152338;27;20057;-57
2021/12/10 02:42:41;;;;;;;28.67;11.43;;;;;;;-3.06;100.00;99047.03;5152322;27;20057;-57
2021/12/10 02:45:09;;;;;;;27.00;11.13;;;;;;;-3.09;100.00;99051.84;5151856;27;20090;-58
2021/12/10 02:47:36;;;;;;;19.85;10.45;;;;;;;-3.04;100.00;99040.28;5152058;27;20138;-55
2021/12/10 02:50:09;;;;;;;24.35;10.35;;;;;;;-3.00;100.00;99027.94;5152366;27;20046;-56
2021/12/10 02:52:35;;;;;;;24.90;10.50;;;;;;;-2.96;100.00;99028.19;5152379;27;20053;-56
2021/12/10 02:55:01;;;;;;;26.67;10.73;;;;;;;-2.97;100.00;99032.72;5152001;27;20050;-54
2021/12/10 02:57:28;;;;;;;21.38;10.23;;;;;;;-2.94;100.00;99028.69;5152149;27;20464;-56
2021/12/10 02:59:55;;;;;;;24.85;10.65;;;;;;;-2.89;100.00;99028.66;5152133;27;20051;-57
2021/12/10 03:02:24;;;;;;;21.73;10.73;;;;;;;-2.91;100.00;99028.94;5152209;27;20053;-57
2021/12/10 03:04:51;;;;;;;22.10;10.80;;;;;;;-2.96;100.00;99026.28;5151996;27;20046;-57
2021/12/10 03:07:21;;;;;;;21.45;10.60;;;;;;;-2.87;100.00;99023.81;5151818;27;20052;-57
2021/12/10 03:09:51;;;;;;;20.98;10.48;;;;;;;-2.86;100.00;99028.91;5151808;27;20054;-56
2021/12/10 03:12:19;;;;;;;22.85;10.18;;;;;;;-2.86;100.00;99025.44;5152453;27;20081;-54
2021/12/10 03:14:50;;;;;;;21.67;9.82;;;;;;;-2.86;100.00;99034.28;5152176;27;20085;-56
2021/12/10 03:17:20;;;;;;;18.38;9.23;;;;;;;-2.80;100.00;99040.38;5152119;27;20050;-57
2021/12/10 03:19:46;;;;;;;18.88;9.80;;;;;;;-2.85;100.00;99035.88;5151718;27;20085;-57
2021/12/10 03:22:13;;;;;;;25.80;10.73;;;;;;;-2.78;100.00;99038.22;5151833;27;20046;-56
2021/12/10 03:24:39;;;;;;;19.70;10.10;;;;;;;-2.71;100.00;99046.75;5152110;27;20090;-54
2021/12/10 03:27:10;;;;;;;19.15;9.65;;;;;;;-2.73;100.00;99040.88;5151720;27;20141;-56
2021/12/10 03:29:39;;;;;;;22.08;9.82;;;;;;;-2.65;100.00;99042.16;5151766;27;20047;-57
2021/12/10 03:32:09;;;;;;;21.63;10.38;;;;;;;-2.66;100.00;99045.94;5151926;27;20050;-57
2021/12/10 03:34:36;;;;;;;17.55;9.70;;;;;;;-2.59;100.00;99038.34;5151670;27;20093;-57
2021/12/10 03:37:04;;;;;;;20.48;9.90;;;;;;;-2.65;100.00;99031.41;5151772;27;20054;-56
2021/12/10 03:39:30;;;;;;;21.75;9.80;;;;;;;-2.61;100.00;99027.09;5151648;27;20043;-57
2021/12/10 03:41:58;;;;;;;18.70;10.20;;;;;;;-2.66;100.00;99029.84;5151605;27;20143;-55
2021/12/10 03:44:25;;;;;;;19.77;8.63;;;;;;;-2.62;100.00;99026.28;5151553;27;20086;-58
2021/12/10 03:46:53;;;;;;;20.35;9.02;;;;;;;-2.59;100.00;99016.88;5151073;27;20103;-54
2021/12/10 03:49:21;;;;;;;18.00;9.50;;;;;;;-2.58;100.00;99018.47;5151442;27;20055;-56
2021/12/10 03:51:47;;;;;;;20.08;8.90;;;;;;;-2.59;100.00;99014.19;5151795;27;20141;-54
2021/12/10 03:54:16;;;;;;;21.08;9.65;;;;;;;-2.70;100.00;99009.97;5151368;27;20068;-56
2021/12/10 03:56:44;;;;;;;16.55;8.23;;;;;;;-2.59;100.00;99014.19;5151558;27;20149;-53
2021/12/10 03:59:13;;;;;;;17.30;8.85;;;;;;;-2.56;100.00;99007.47;5151129;27;20519;-55
2021/12/10 04:01:47;;;;;;;18.98;9.52;;;;;;;-2.54;100.00;98998.03;5151464;27;20085;-54
2021/12/10 04:04:16;;;;;;;17.83;8.30;;;;;;;-2.56;100.00;98997.53;5151332;27;20089;-54
2021/12/10 04:06:44;;;;;;;20.25;8.75;;;;;;;-2.59;100.00;98997.31;5151357;27;20497;-56
2021/12/10 04:09:10;;;;;;;19.10;9.55;;;;;;;-2.54;100.00;98998.03;5151204;27;20057;-56
2021/12/10 04:11:37;;;;;;;11.85;6.38;;;;;;;-2.49;100.00;98995.31;5151231;27;20086;-58
2021/12/10 04:14:05;;;;;;;16.58;9.15;;;;;;;-2.63;100.00;98997.88;5151092;27;20051;-53
2021/12/10 04:16:33;;;;;;;14.80;8.05;;;;;;;-2.64;100.00;98992.75;5151036;27;20051;-56
2021/12/10 04:19:01;;;;;;;15.70;8.40;;;;;;;-2.60;100.00;98996.47;5151538;27;20050;-56
2021/12/10 04:21:28;;;;;;;21.30;8.82;;;;;;;-2.47;100.00;98985.09;5151120;27;20102;-54
2021/12/10 04:23:55;;;;;;;15.80;7.47;;;;;;;-2.48;100.00;98986.16;5150948;27;20086;-56
2021/12/10 04:26:24;;;;;;;15.57;8.15;;;;;;;-2.49;100.00;98986.47;5150968;27;20137;-54
2021/12/10 04:28:51;;;;;;;18.05;9.13;;;;;;;-2.52;100.00;98965.56;5151235;27;20050;-57
2021/12/10 04:31:17;;;;;;;17.52;9.55;;;;;;;-2.43;100.00;98967.34;5151677;27;20086;-56
2021/12/10 04:33:44;;;;;;;20.70;8.50;;;;;;;-2.43;100.00;98964.66;5154643;27;20079;-55
2021/12/10 04:36:10;;;;;;;26.27;9.50;;;;;;;-2.38;100.00;98961.13;5154526;27;20107;-56
2021/12/10 04:38:37;;;;;;;20.17;9.93;;;;;;;-2.37;100.00;98958.16;5154484;27;20057;-57
2021/12/10 04:41:08;;;;;;;21.20;10.40;;;;;;;-2.22;100.00;98959.06;5154494;27;20051;-55
2021/12/10 04:43:41;;;;;;;21.77;9.85;;;;;;;-2.30;100.00;98967.72;5154223;27;20058;-56
2021/12/10 04:46:08;;;;;;;19.00;9.63;;;;;;;-2.37;100.00;98962.69;5153795;27;20134;-56
2021/12/10 04:48:48;;;;;;;19.55;9.10;;;;;;;-2.38;100.00;98961.13;5154471;27;20078;-57
2021/12/10 04:51:15;;;;;;;21.65;9.85;;;;;;;-2.29;100.00;98966.66;5154337;27;20099;-56
2021/12/10 04:53:41;;;;;;;19.08;9.90;;;;;;;-2.26;100.00;98964.22;5153925;27;20094;-51
2021/12/10 04:56:08;;;;;;;20.77;9.35;;;;;;;-1.91;100.00;98957.63;5154086;27;20217;-63
2021/12/10 04:58:35;;;;;;;20.35;9.65;;;;;;;-1.87;100.00;98962.41;5154229;27;20409;-62
2021/12/10 05:01:03;;;;;;;20.08;9.30;;;;;;;-1.93;100.00;98956.31;5153568;27;20057;-61
2021/12/10 05:03:29;;;;;;;22.13;9.98;;;;;;;-1.97;100.00;98976.75;5154041;27;20046;-64
2021/12/10 05:06:00;;;;;;;20.38;9.30;;;;;;;-1.93;100.00;98977.81;5153770;27;20074;-61
2021/12/10 05:08:27;;;;;;;23.90;10.00;;;;;;;-1.96;100.00;98976.50;5153825;27;20047;-59
2021/12/10 05:10:53;;;;;;;19.52;10.45;;;;;;;-1.94;100.00;98976.19;5153600;27;20078;-53
2021/12/10 05:13:20;;;;;;;20.20;10.48;;;;;;;-1.93;100.00;98967.88;5154072;27;20050;-58
2021/12/10 05:15:53;;;;;;;18.10;9.70;;;;;;;-1.85;100.00;98981.75;5153859;27;20054;-60
2021/12/10 05:18:20;;;;;;;21.85;10.70;;;;;;;-1.87;100.00;98981.22;5153692;27;20051;-62
2021/12/10 05:20:48;;;;;;;24.90;10.88;;;;;;;-1.83;100.00;98974.19;5153589;27;20512;-59
2021/12/10 05:23:15;;;;;;;20.13;10.38;;;;;;;-1.81;100.00;98974.69;5141830;27;20481;-57
2021/12/10 05:25:42;;;;;;;16.27;8.52;;;;;;;-1.79;100.00;98978.72;5132735;28;20051;-55
2021/12/10 05:28:09;;;;;;;22.90;10.18;;;;;;;-1.84;100.00;98984.13;5132729;28;20051;-61
2021/12/10 05:30:36;;;;;;;24.27;10.50;;;;;;;-1.76;100.00;98982.72;5127759;28;20528;-59
2021/12/10 05:33:04;;;;;;;21.05;9.57;;;;;;;-1.73;100.00;98982.94;5118415;28;20086;-61
2021/12/10 05:35:31;;;;;;;23.25;10.32;;;;;;;-1.73;100.00;98982.16;5132581;28;20046;-57
2021/12/10 05:37:58;;;;;;;24.80;10.88;;;;;;;-1.70;100.00;98978.84;5132578;28;20082;-56
2021/12/10 05:40:26;;;;;;;20.13;9.70;;;;;;;-1.71;100.00;98983.44;5132038;28;20082;-59
2021/12/10 05:42:53;;;;;;;21.50;9.77;;;;;;;-1.72;100.00;98981.03;5132367;27;20091;-61
2021/12/10 05:45:22;;;;;;;17.67;9.27;;;;;;;-1.66;100.00;98987.97;5132022;28;20054;-52
2021/12/10 05:47:49;;;;;;;25.20;11.00;;;;;;;-1.62;100.00;98988.97;5132514;28;20474;-49
2021/12/10 05:50:19;;;;;;;25.48;10.13;;;;;;;-1.64;100.00;98991.16;5131503;28;20051;-51
2021/12/10 05:52:45;;;;;;;20.67;9.80;;;;;;;-1.63;100.00;98986.56;5131993;28;20516;-55
2021/12/10 05:55:12;;;;;;;21.00;9.93;;;;;;;-1.74;100.00;98992.06;5132217;28;20078;-51
2021/12/10 05:57:39;;;;;;;19.85;10.23;;;;;;;-1.70;100.00;98984.22;5132170;28;20058;-53
2021/12/10 06:00:09;;;;;;;23.67;10.68;;;;;;;-1.69;100.00;98977.78;5132337;28;20047;-53
2021/12/10 06:02:36;;;;;;;22.67;9.45;;;;;;;-1.59;100.00;98969.59;5132058;28;20481;-49
2021/12/10 06:05:04;;;;;;;21.70;9.77;;;;;;;-1.50;100.00;98965.16;5131679;27;20382;-50
2021/12/10 06:07:30;;;;;;;22.67;9.82;;;;;;;-1.51;100.00;98955.47;5132002;28;20134;-52
2021/12/10 06:09:57;;;;;;;25.95;10.90;;;;;;;-1.44;100.00;98957.81;5132031;28;20047;-54
2021/12/10 06:12:23;;;;;;;28.77;10.35;;;;;;;-1.38;100.00;98964.72;5132004;28;20466;-50
2021/12/10 06:14:50;;;;;;;19.83;10.00;;;;;;;-1.54;100.00;98966.03;5131566;28;20096;-50
2021/12/10 06:17:16;;;;;;;21.42;9.90;;;;;;;-1.47;100.00;98959.19;5131665;28;20059;-51
2021/12/10 06:19:43;;;;;;;20.25;10.07;;;;;;;-1.55;100.00;98957.16;5131295;28;20134;-52
2021/12/10 06:22:10;;;;;;;19.67;10.18;;;;;;;-1.50;100.00;98956.28;5131351;28;20086;-51
2021/12/10 06:24:36;;;;;;;20.50;8.95;;;;;;;-1.51;100.00;98966.25;5131873;28;20215;-56
2021/12/10 06:27:04;;;;;;;23.58;10.13;;;;;;;-1.54;100.00;98964.13;5131632;28;20131;-54
2021/12/10 06:29:30;;;;;;;19.52;9.77;;;;;;;-1.55;100.00;98965.22;5131634;28;20053;-56
2021/12/10 06:31:57;;;;;;;21.65;9.70;;;;;;;-1.45;100.00;98948.94;5131367;28;20086;-49
2021/12/10 06:34:24;;;;;;;23.73;9.68;;;;;;;-1.44;100.00;98947.06;5131361;28;20059;-49
2021/12/10 06:36:50;;;;;;;16.48;9.32;;;;;;;-1.49;100.00;98961.38;5131453;28;20096;-49
2021/12/10 06:39:20;;;;;;;25.90;10.13;;;;;;;-1.42;100.00;98961.03;5131639;28;20091;-54
2021/12/10 06:41:47;;;;;;;29.77;9.80;;;;;;;-1.42;100.00;98950.25;5131530;28;20058;-49
2021/12/10 06:44:14;;;;;;;26.10;9.82;;;;;;;-1.42;100.00;98939.50;5131350;28;20047;-49
2021/12/10 06:46:40;;;;;;;23.17;8.90;;;;;;;-1.39;100.00;98938.13;5130907;28;20043;-54
2021/12/10 06:49:07;;;;;;;17.02;9.27;;;;;;;-1.37;100.00;98933.25;5131056;28;20090;-53
2021/12/10 06:51:33;;;;;;;19.08;9.88;;;;;;;-1.40;100.00;98917.69;5131431;28;20151;-55
2021/12/10 06:53:59;;;;;;;23.05;10.35;;;;;;;-1.34;100.00;98935.34;5130440;27;20043;-54
2021/12/10 06:56:28;;;;;;;19.02;9.20;;;;;;;-1.33;100.00;98924.31;5131369;28;20544;-54
2021/12/10 06:58:54;;;;;;;20.50;9.27;;;;;;;-1.24;100.00;98936.00;5149515;27;20054;-49
2021/12/10 07:01:24;;;;;;;22.80;10.00;;;;;;;-1.25;100.00;98933.59;5151546;27;20061;-52
2021/12/10 07:03:51;;;;;;;19.33;9.75;;;;;;;-1.30;100.00;98917.53;5151714;27;20082;-53
2021/12/10 07:06:18;;;;;;;31.75;11.23;;;;;;;-1.23;100.00;98920.69;5151997;27;20068;-51
2021/12/10 07:08:47;;;;;;;26.75;9.73;;;;;;;-1.29;100.00;98909.19;5151702;27;20046;-53
2021/12/10 07:11:15;;;;;;;22.67;9.40;;;;;;;-1.37;100.00;98907.16;5151515;27;20043;-56
2021/12/10 07:13:44;;;;;;;21.25;10.30;;;;;;;-1.30;100.00;98896.03;5151582;27;20046;-57
2021/12/10 07:16:12;;;;;;;29.35;11.27;;;;;;;-1.28;100.00;98891.94;5151597;27;20498;-53
2021/12/10 07:18:39;;;;;;;23.33;11.77;;;;;;;-1.28;100.00;98891.94;5151575;27;20054;-52
2021/12/10 07:21:06;;;;;;;25.85;9.27;;;;;;;-1.27;100.00;98888.16;5151391;27;20062;-49
2021/12/10 07:23:33;;;;;;;18.85;10.68;;;;;;;-1.31;100.00;98876.41;5151367;27;20051;-56
2021/12/10 07:25:59;;;;;;;22.20;9.63;;;;;;;-1.28;100.00;98896.53;5151749;27;20053;-53
2021/12/10 07:28:25;;;;;;;21.98;9.80;;;;;;;-1.32;100.00;98887.47;5151637;27;20490;-56
2021/12/10 07:30:53;;;;;;;19.50;9.52;;;;;;;-1.21;100.00;98880.81;5151473;27;20051;-60
2021/12/10 07:33:20;;;;;;;28.40;9.63;;;;;;;-1.15;100.00;98881.53;5147885;27;20129;-59
2021/12/10 07:35:48;;;;;;;19.40;9.25;;;;;;;-1.03;100.00;98885.38;5145722;27;20516;-60
2021/12/10 07:38:14;;;;;;;17.05;8.95;;;;;;;-1.07;100.00;98892.41;5149504;27;20547;-59
2021/12/10 07:40:41;;;;;;;19.85;9.13;;;;;;;-1.09;100.00;98883.06;5150777;27;20043;-53
2021/12/10 07:43:08;;;;;;;22.08;10.07;;;;;;;-1.01;100.00;98885.84;5151114;27;20047;-51
2021/12/10 07:45:36;;;;;;;23.33;10.05;;;;;;;-1.06;100.00;98887.84;5150816;27;20087;-55
2021/12/10 07:48:08;;;;;;;20.70;9.63;;;;;;;-1.05;100.00;98882.16;5130074;27;20097;-51
2021/12/10 07:50:36;;;;;;;18.73;9.68;;;;;;;-0.97;100.00;98878.00;5150740;27;20050;-55
2021/12/10 07:53:05;;;;;;;29.35;11.27;;;;;;;-0.96;100.00;98879.59;5151149;27;20141;-49
2021/12/10 07:55:34;;;;;;;20.33;9.75;;;;;;;-0.87;100.00;98890.47;5150852;27;20056;-47
2021/12/10 07:58:02;;;;;;;21.25;9.23;;;;;;;-0.77;100.00;98866.88;5148712;27;20499;-50
2021/12/10 08:00:34;;;;;;;24.70;10.02;;;;;;;-0.71;100.00;98876.44;5130403;28;20051;-49
2021/12/10 08:03:00;;;;;;;30.48;10.57;;;;;;;-0.75;100.00;98878.13;5130487;28;20078;-52
2021/12/10 08:05:28;;;;;;;38.70;10.43;;;;;;;-0.71;100.00;98878.34;5131419;27;20051;-50
2021/12/10 08:07:56;;;;;;;43.83;10.18;;;;;;;-0.67;100.00;98879.34;5133869;28;20141;-48
2021/12/10 08:10:23;;;;;;;38.83;11.68;;;;;;;-0.72;100.00;98874.84;5133570;28;20058;-52
2021/12/10 08:12:50;;;;;;;23.85;11.15;;;;;;;-0.66;100.00;98875.56;5133823;28;20050;-50
2021/12/10 08:15:17;;;;;;;38.70;11.07;;;;;;;-0.70;100.00;98871.84;5133704;28;20051;-49
2021/12/10 08:17:44;;;;;;;27.55;10.38;;;;;;;-0.80;100.00;98856.72;5133823;28;20050;-49
2021/12/10 08:20:13;;;;;;;49.20;12.57;;;;;;;-0.76;100.00;98859.59;5133783;28;20051;-49
2021/12/10 08:22:41;;;;;;;30.08;12.23;;;;;;;-0.75;100.00;98853.13;5133674;28;20490;-50
2021/12/10 08:25:08;;;;;;;37.47;13.07;;;;;;;-0.73;100.00;98854.44;5133739;28;20048;-52
2021/12/10 08:27:36;;;;;;;44.35;11.65;;;;;;;-0.66;100.00;98850.53;5133559;28;20090;-52
2021/12/10 08:30:04;;;;;;;42.83;12.27;;;;;;;-0.59;100.00;98854.44;5138669;27;20048;-49
2021/12/10 08:32:31;;;;;;;39.13;11.25;;;;;;;-0.61;100.00;98851.22;5133352;28;20047;-48
2021/12/10 08:34:58;;;;;;;42.35;11.75;;;;;;;-0.68;100.00;98853.53;5140293;27;20417;-50
2021/12/10 08:37:24;;;;;;;40.38;13.70;;;;;;;-0.62;100.00;98848.84;5133568;28;20055;-50
2021/12/10 08:39:51;;;;;;;50.10;11.73;;;;;;;-0.61;100.00;98826.19;5133917;28;20051;-48
2021/12/10 08:42:18;;;;;;;40.97;12.63;;;;;;;-0.54;100.00;98830.09;5133312;28;20429;-49
2021/12/10 08:44:45;;;;;;;57.20;12.50;;;;;;;-0.48;100.00;98823.50;5133188;28;20047;-53
2021/12/10 08:47:12;;;;;;;43.10;12.43;;;;;;;-0.48;100.00;98822.72;5132762;28;20044;-49
2021/12/10 08:49:39;;;;;;;35.38;11.68;;;;;;;-0.52;100.00;98814.44;5133475;28;20051;-48
2021/12/10 08:52:08;;;;;;;37.08;11.52;;;;;;;-0.52;100.00;98816.34;5133451;28;20084;-52
2021/12/10 08:54:35;;;;;;;55.97;20.35;;;;;;;-0.37;100.00;98812.53;5134929;27;20485;-49
2021/12/10 08:57:04;;;;;;;32.72;11.40;;;;;;;-0.27;100.00;98804.22;5133357;28;20051;-49
2021/12/10 08:59:31;;;;;;;35.13;12.25;;;;;;;-0.32;100.00;98801.66;5137408;27;20139;-49
2021/12/10 09:02:00;;;;;;;35.03;12.27;;;;;;;-0.32;100.00;98805.13;5152356;27;20054;-51
2021/12/10 09:04:28;;;;;;;76.55;11.95;;;;;;;-0.31;100.00;98804.03;5153461;27;20070;-46
2021/12/10 09:07:02;;;;;;;31.75;11.75;;;;;;;-0.33;100.00;98800.84;5153419;27;20062;-46
2021/12/10 09:09:30;;;;;;;26.00;11.00;;;;;;;-0.27;100.00;98794.28;5153532;27;20065;-49
2021/12/10 09:11:58;;;;;;;32.63;12.32;;;;;;;-0.26;100.00;98795.06;5153988;27;20081;-47
2021/12/10 09:14:33;;;;;;;31.27;12.13;;;;;;;-0.22;100.00;98785.28;5153679;27;20050;-51
2021/12/10 09:17:01;;;;;;;36.92;11.95;;;;;;;-0.21;100.00;98772.59;5153280;27;20432;-46
2021/12/10 09:19:28;;;;;;;41.75;11.60;;;;;;;-0.16;100.00;98769.81;5153770;27;20069;-46
2021/12/10 09:21:55;;;;;;;29.98;12.27;;;;;;;-0.04;100.00;98778.13;5153698;27;20100;-50
2021/12/10 09:24:22;;;;;;;34.60;11.88;;;;;;;-0.03;100.00;98777.03;5153633;27;20456;-49
2021/12/10 09:26:54;;;;;;;26.33;10.52;;;;;;;-0.05;100.00;98776.53;5153237;27;20057;-47
2021/12/10 09:29:21;;;;;;;32.90;11.88;;;;;;;-0.03;100.00;98769.75;5153068;27;20488;-48
2021/12/10 09:31:48;;;;;;;28.13;11.65;;;;;;;0.02;100.00;98757.25;5152410;27;20051;-51
2021/12/10 09:34:16;;;;;;;26.88;10.73;;;;;;;0.07;100.00;98759.81;5131283;28;20485;-47
2021/12/10 09:36:44;;;;;;;31.83;11.18;;;;;;;0.03;100.00;98756.94;5132494;28;20043;-50
2021/12/10 09:39:12;;;;;;;21.40;9.88;;;;;;;0.09;100.00;98752.22;5132118;28;20043;-48
2021/12/10 09:41:39;;;;;;;26.52;11.57;;;;;;;0.16;100.00;98752.59;5132391;28;20047;-49
2021/12/10 09:44:08;;;;;;;26.52;10.98;;;;;;;0.22;100.00;98754.06;5132350;28;20103;-47
2021/12/10 09:46:34;;;;;;;28.50;11.20;;;;;;;0.23;100.00;98763.75;5131740;28;20047;-48
2021/12/10 09:49:02;;;;;;;29.45;12.00;;;;;;;0.19;100.00;98760.88;5132255;28;20044;-50
2021/12/10 09:51:34;;;;;;;30.45;11.32;;;;;;;0.14;100.00;98760.22;5131898;28;20051;-48
2021/12/10 09:54:10;;;;;;;29.33;11.50;;;;;;;0.27;100.00;98753.97;5131849;28;20055;-51
2021/12/10 09:56:38;;;;;;;26.70;11.23;;;;;;;0.39;100.00;98778.47;5123360;28;20063;-50
2021/12/10 09:59:04;;;;;;;21.08;9.73;;;;;;;0.37;100.00;98764.50;5129938;27;20058;-50
2021/12/10 10:01:33;;;;;;;28.58;11.07;;;;;;;0.35;100.00;98755.13;5132162;28;20051;-52
2021/12/10 10:04:02;;;;;;;21.45;10.75;;;;;;;0.29;100.00;98767.91;5111563;28;20090;-49
2021/12/10 10:06:30;;;;;;;23.75;10.85;;;;;;;0.35;100.00;98769.41;5111558;28;20059;-51
2021/12/10 10:08:57;;;;;;;18.15;9.65;;;;;;;0.28;100.00;98762.84;5111535;28;20047;-52
2021/12/10 10:11:27;;;;;;;23.13;10.30;;;;;;;0.28;100.00;98758.25;5125953;28;20162;-59
2021/12/10 10:13:56;;;;;;;34.70;10.13;;;;;;;0.42;100.00;98750.88;5131984;28;20107;-60
2021/12/10 10:16:24;;;;;;;22.67;10.25;;;;;;;0.43;100.00;98747.09;5131369;28;20051;-55
2021/12/10 10:18:51;;;;;;;33.60;11.00;;;;;;;0.42;100.00;98737.41;5131589;28;20631;-55
2021/12/10 10:21:21;;;;;;;29.60;10.90;;;;;;;0.46;100.00;98732.19;5129627;27;20047;-56
2021/12/10 10:23:50;;;;;;;24.73;10.02;;;;;;;0.46;100.00;98724.88;5130952;28;20116;-54
2021/12/10 10:26:31;;;;;;;33.33;11.73;;;;;;;0.59;100.00;98725.13;5129787;28;20046;-52
2021/12/10 10:28:59;;;;;;;22.98;10.23;;;;;;;0.59;100.00;98727.81;5130452;27;20129;-59
2021/12/10 10:31:26;;;;;;;22.00;10.00;;;;;;;0.59;100.00;98736.69;5131148;28;20107;-59
2021/12/10 10:33:57;;;;;;;16.80;9.27;;;;;;;0.61;100.00;98718.31;5131678;28;20096;-60
2021/12/10 10:36:26;;;;;;;21.45;10.15;;;;;;;0.68;100.00;98726.75;5131380;28;20480;-50
2021/12/10 10:38:57;;;;;;;21.40;9.75;;;;;;;0.67;100.00;98732.47;5124858;28;20055;-56
2021/12/10 10:41:27;;;;;;;21.02;9.82;;;;;;;0.66;100.00;98723.56;5120711;28;20047;-52
2021/12/10 10:44:07;;;;;;;22.88;9.05;;;;;;;0.64;100.00;98720.41;5120343;28;20078;-50
2021/12/10 10:46:41;;;;;;;21.83;10.05;;;;;;;0.66;100.00;98720.88;5091823;28;20090;-51
2021/12/10 10:49:08;;;;;;;22.10;9.98;;;;;;;0.67;100.00;98711.69;5117411;28;20053;-51
2021/12/10 10:51:37;;;;;;;21.75;9.77;;;;;;;0.68;100.00;98704.38;5130686;28;20532;-53
2021/12/10 10:54:08;;;;;;;16.08;8.70;;;;;;;0.74;100.00;98697.75;5131049;27;20599;-52
2021/12/10 10:56:37;;;;;;;15.35;8.60;;;;;;;0.76;100.00;98700.13;5130716;28;20138;-50
2021/12/10 10:59:11;;;;;;;20.88;9.52;;;;;;;0.82;100.00;98707.75;5130694;28;20054;-56
2021/12/10 11:01:41;;;;;;;23.40;9.65;;;;;;;0.77;100.00;98713.31;5130373;28;20071;-53
2021/12/10 11:04:16;;;;;;;29.35;14.88;;;;;;;0.86;100.00;98697.94;5130965;28;20043;-51
2021/12/10 11:06:43;;;;;;;;;;;;;;;0.88;100.00;98705.72;5131420;28;20386;-51
2021/12/10 11:09:15;;;;;;;16.23;8.55;;;;;;;0.86;100.00;98706.03;5130786;28;19965;-51
2021/12/10 11:11:45;;;;;;;19.48;7.45;;;;;;;0.83;100.00;98698.56;5131212;28;20043;-50
2021/12/10 11:14:15;;;;;;;15.07;9.35;;;;;;;0.85;100.00;98687.47;5130603;27;20079;-54
2021/12/10 11:16:43;;;;;;;18.30;9.65;;;;;;;0.92;100.00;98691.28;5131042;28;20047;-50
2021/12/10 11:19:12;;;;;;;18.10;8.32;;;;;;;1.02;100.00;98692.13;5131261;28;20494;-49
2021/12/10 11:21:42;;;;;;;16.75;9.00;;;;;;;1.03;100.00;98691.00;5130816;28;20047;-50
2021/12/10 11:24:13;;;;;;;18.17;8.70;;;;;;;1.01;100.00;98698.63;5130811;28;20066;-50
2021/12/10 11:26:51;;;;;;;14.85;8.85;;;;;;;1.01;100.00;98695.94;5130619;27;20051;-50